Time;durP1;ratioP1;P1;durP2;ratioP2;P2;SDS_P1;SDS_P2;PMS_P1;PMS_P2;Temp;Humidity;BMP_temperature;BMP_pressure;BME280_temperature;BME280_humidity;BME280_pressure;Samples;Min_cycle;Max_cycle;Signal;HPM_P1;HPM_P2
2022/05/14 00:01:40;;;;;;;12.43;3.90;;;;;;;13.76;60.78;98931.52;1757161;81;20925;-41
2022/05/14 00:04:10;;;;;;;6.22;3.58;;;;;;;13.75;60.93;98927.23;1757331;81;20985;-41
2022/05/14 00:06:36;;;;;;;9.20;3.55;;;;;;;13.73;60.90;98924.14;1757380;81;21060;-41
2022/05/14 00:09:05;;;;;;;8.48;3.92;;;;;;;13.71;60.89;98923.73;1757233;81;21258;-41
2022/05/14 00:14:19;;;;;;;7.17;3.15;;;;;;;13.65;61.13;98912.45;1757400;81;20977;-41
2022/05/14 00:16:46;;;;;;;6.53;3.87;;;;;;;13.61;61.18;98917.71;1757561;81;21037;-41
2022/05/14 00:19:13;;;;;;;10.30;3.75;;;;;;;13.58;61.36;98915.78;1757262;81;20981;-41
2022/05/14 00:21:40;;;;;;;6.30;3.80;;;;;;;13.56;61.90;98912.66;1757161;81;21991;-41
2022/05/14 00:24:09;;;;;;;5.33;3.30;;;;;;;13.57;62.31;98908.77;1756890;81;20934;-41
2022/05/14 00:26:38;;;;;;;5.70;3.30;;;;;;;13.59;62.38;98900.42;1757160;81;21033;-41
2022/05/14 00:29:06;;;;;;;7.08;3.72;;;;;;;13.60;62.24;98898.48;1757342;81;21056;-41
2022/05/14 00:31:32;;;;;;;6.53;3.52;;;;;;;13.62;62.37;98906.44;1757577;81;21044;-41
2022/05/14 00:33:59;;;;;;;4.25;3.35;;;;;;;13.64;63.43;98909.56;1757399;81;21139;-41
2022/05/14 00:36:26;;;;;;;5.90;3.50;;;;;;;13.64;64.30;98903.33;1757131;81;20964;-41
2022/05/14 00:38:54;;;;;;;4.47;3.12;;;;;;;13.65;65.26;98898.84;1756709;81;21092;-41
2022/05/14 00:41:21;;;;;;;6.05;3.00;;;;;;;13.68;65.64;98906.83;1756567;81;20980;-41
2022/05/14 00:43:57;;;;;;;7.60;3.37;;;;;;;13.72;65.73;98900.78;1756883;81;21491;-41
2022/05/14 00:46:41;;;;;;;7.22;3.22;;;;;;;13.77;65.61;98901.75;1756726;81;21919;-41
2022/05/14 00:49:08;;;;;;;4.83;3.08;;;;;;;13.80;65.33;98895.52;1756699;81;21004;-41
2022/05/14 00:51:41;;;;;;;3.80;3.12;;;;;;;13.81;65.73;98892.98;1756635;81;20973;-41
2022/05/14 00:54:11;;;;;;;8.85;3.42;;;;;;;13.77;66.08;98890.86;1757066;81;21593;-41
2022/05/14 00:56:42;;;;;;;6.17;3.90;;;;;;;13.68;66.51;98885.03;1756732;81;21037;-41
2022/05/14 00:59:14;;;;;;;7.15;3.42;;;;;;;13.61;66.79;98883.66;1756909;81;21530;-41
2022/05/14 01:01:42;;;;;;;5.28;3.25;;;;;;;13.60;66.83;98878.83;1743337;81;20952;-41
2022/05/14 01:04:09;;;;;;;9.40;3.90;;;;;;;13.68;66.26;98879.59;1757105;81;21033;-41
2022/05/14 01:06:37;;;;;;;5.67;3.98;;;;;;;13.75;65.51;98881.70;1756495;81;21025;-41
2022/05/14 01:09:06;;;;;;;8.45;3.45;;;;;;;13.80;64.98;98877.22;1756895;81;21040;-41
2022/05/14 01:11:35;;;;;;;5.40;4.05;;;;;;;13.83;64.54;98880.54;1757311;81;21099;-41
2022/05/14 01:14:02;;;;;;;6.90;3.35;;;;;;;13.86;64.12;98873.52;1756854;81;21017;-41
2022/05/14 01:16:30;;;;;;;6.80;3.72;;;;;;;13.87;63.91;98875.08;1728980;81;21015;-41
2022/05/14 01:18:58;;;;;;;5.75;3.60;;;;;;;13.88;63.63;98873.91;1756952;81;21028;-41
2022/05/14 01:21:39;;;;;;;6.95;3.80;;;;;;;13.86;63.36;98873.52;1756842;81;21016;-41
2022/05/14 01:27:04;;;;;;;7.12;3.92;;;;;;;13.83;63.50;98866.14;1751251;81;21491;-41
2022/05/14 01:29:31;;;;;;;7.45;4.00;;;;;;;13.76;63.32;98864.19;1749198;82;21586;-41
2022/05/14 01:32:00;;;;;;;6.00;3.67;;;;;;;13.74;63.32;98864.41;1748630;82;21012;-41
2022/05/14 01:34:31;;;;;;;5.33;3.50;;;;;;;13.73;63.12;98871.02;1749209;82;21102;-41
2022/05/14 01:36:59;;;;;;;7.95;3.52;;;;;;;13.71;62.89;98862.45;1734647;82;21954;-41
2022/05/14 01:39:26;;;;;;;7.50;3.45;;;;;;;13.73;63.05;98858.76;1749008;82;21021;-41
2022/05/14 01:41:53;;;;;;;5.03;3.50;;;;;;;13.78;63.36;98862.45;1749141;82;21591;-41
2022/05/14 01:44:22;;;;;;;6.33;3.58;;;;;;;13.78;63.33;98865.95;1748908;82;21004;-41
2022/05/14 01:46:50;;;;;;;6.70;3.30;;;;;;;13.78;63.22;98865.95;1721761;82;20933;-41
2022/05/14 01:49:17;;;;;;;9.55;3.58;;;;;;;13.78;63.16;98867.31;1748802;82;21162;-41
2022/05/14 01:51:45;;;;;;;7.95;3.80;;;;;;;13.76;62.98;98862.83;1748940;82;21009;-41
2022/05/14 01:54:12;;;;;;;6.97;3.77;;;;;;;13.76;62.85;98862.05;1744230;82;20965;-41
2022/05/14 01:56:39;;;;;;;6.92;3.80;;;;;;;13.73;62.74;98860.13;1748938;82;21099;-41
2022/05/14 01:59:05;;;;;;;8.20;4.20;;;;;;;13.70;62.70;98860.91;1749031;82;21033;-41
2022/05/14 02:01:35;;;;;;;8.43;4.08;;;;;;;13.68;62.70;98857.80;1748932;82;21236;-41
2022/05/14 02:04:05;;;;;;;7.77;3.60;;;;;;;13.64;62.68;98852.36;1749220;82;21025;-41
2022/05/14 02:06:33;;;;;;;7.45;3.70;;;;;;;13.60;62.75;98852.17;1748928;82;22240;-41
2022/05/14 02:09:01;;;;;;;7.60;3.35;;;;;;;13.57;62.89;98848.85;1748896;82;21014;-41
2022/05/14 02:11:29;;;;;;;7.10;4.00;;;;;;;13.58;62.88;98849.83;1749020;82;20990;-41
2022/05/14 02:13:58;;;;;;;6.95;3.62;;;;;;;13.62;62.84;98845.16;1747818;82;23133;-41
2022/05/14 02:16:24;;;;;;;9.20;3.98;;;;;;;13.64;62.96;98854.30;1748882;82;21285;-41
2022/05/14 02:18:51;;;;;;;12.20;4.20;;;;;;;13.66;62.99;98851.36;1749049;82;21084;-41
2022/05/14 02:21:20;;;;;;;9.60;4.10;;;;;;;13.67;62.94;98845.34;1749030;82;21023;-41
2022/05/14 02:23:48;;;;;;;9.33;4.08;;;;;;;13.68;62.92;98841.45;1749034;82;21025;-41
2022/05/14 02:26:15;;;;;;;8.73;4.25;;;;;;;13.68;62.93;98850.98;1748888;81;21152;-41
2022/05/14 02:28:43;;;;;;;9.20;4.30;;;;;;;13.67;62.96;98841.25;1748917;82;20941;-41
2022/05/14 02:31:10;;;;;;;8.03;4.03;;;;;;;13.66;63.01;98845.14;1749206;82;20954;-41
2022/05/14 02:33:37;;;;;;;7.15;4.22;;;;;;;13.65;62.88;98844.36;1721383;82;21017;-41
2022/05/14 02:36:07;;;;;;;9.28;3.95;;;;;;;13.64;62.73;98839.32;1749189;82;21080;-41
2022/05/14 02:38:36;;;;;;;8.43;4.40;;;;;;;13.63;62.88;98835.03;1749326;82;21574;-41
2022/05/14 02:41:05;;;;;;;12.83;4.20;;;;;;;13.62;63.22;98843.79;1749312;82;20953;-41
2022/05/14 02:43:35;;;;;;;6.62;3.60;;;;;;;13.64;63.54;98833.30;1749069;82;21538;-41
2022/05/14 02:46:03;;;;;;;6.30;3.67;;;;;;;13.68;63.62;98831.91;1749015;82;21045;-41
2022/05/14 02:48:31;;;;;;;7.12;3.90;;;;;;;13.71;63.60;98837.34;1748934;82;21041;-41
2022/05/14 02:50:58;;;;;;;5.75;3.95;;;;;;;13.74;64.19;98841.25;1749209;82;21851;-41
2022/05/14 02:53:26;;;;;;;9.73;4.28;;;;;;;13.77;65.04;98840.45;1748704;82;21554;-41
2022/05/14 02:55:53;;;;;;;7.40;3.87;;;;;;;13.81;65.63;98831.69;1748752;82;20972;-41
2022/05/14 03:01:07;;;;;;;5.25;4.03;;;;;;;13.79;65.22;98842.21;1748967;82;20961;-41
2022/05/14 03:03:35;;;;;;;7.78;4.08;;;;;;;13.79;65.27;98835.41;1749386;82;21202;-41
2022/05/14 03:06:02;;;;;;;12.88;4.08;;;;;;;13.83;65.10;98830.72;1748881;82;20969;-41
2022/05/14 03:08:29;;;;;;;9.23;5.05;;;;;;;13.90;65.05;98835.55;1748834;82;21033;-41
2022/05/14 03:10:56;;;;;;;9.73;4.40;;;;;;;13.94;64.59;98832.22;1748829;82;21024;-41
2022/05/14 03:13:23;;;;;;;6.17;4.17;;;;;;;13.97;64.73;98833.98;1748755;81;21543;-41
2022/05/14 03:15:50;;;;;;;10.70;4.15;;;;;;;13.98;64.58;98833.59;1748891;82;21115;-41
2022/05/14 03:18:17;;;;;;;7.10;3.92;;;;;;;13.98;64.45;98832.23;1748732;82;21568;-41
2022/05/14 03:20:44;;;;;;;9.90;4.20;;;;;;;13.98;64.42;98828.72;1748870;82;20933;-41
2022/05/14 03:23:11;;;;;;;9.63;4.42;;;;;;;13.96;64.36;98831.84;1748859;82;21079;-41
2022/05/14 03:25:39;;;;;;;8.88;4.40;;;;;;;13.94;64.15;98826.77;1748906;82;21123;-41
2022/05/14 03:28:06;;;;;;;6.03;4.78;;;;;;;13.90;63.53;98825.23;1748853;81;21149;-41
2022/05/14 03:30:35;;;;;;;11.38;4.83;;;;;;;13.83;62.89;98829.35;1748773;82;21499;-41
2022/05/14 03:33:01;;;;;;;7.60;5.28;;;;;;;13.75;62.72;98829.94;1749041;82;21072;-41
2022/05/14 03:35:29;;;;;;;9.75;4.90;;;;;;;13.69;62.81;98832.11;1748913;82;21053;-41
2022/05/14 03:37:56;;;;;;;8.58;5.00;;;;;;;13.67;63.08;98830.36;1749285;82;21025;-41
2022/05/14 03:40:22;;;;;;;12.23;5.33;;;;;;;13.68;63.14;98827.25;1749187;82;22082;-41
2022/05/14 03:42:49;;;;;;;9.78;5.20;;;;;;;13.73;63.25;98823.34;1749130;82;21101;-41
2022/05/14 03:45:15;;;;;;;12.80;5.70;;;;;;;13.79;63.34;98823.14;1749332;82;21020;-41
2022/05/14 03:47:44;;;;;;;10.90;5.10;;;;;;;13.88;62.94;98824.28;1748928;82;21008;-41
2022/05/14 03:50:10;;;;;;;10.35;4.80;;;;;;;13.92;62.79;98826.41;1749146;82;21053;-41
2022/05/14 03:52:38;;;;;;;13.18;5.22;;;;;;;13.98;62.93;98828.14;1748722;82;21305;-41
2022/05/14 03:55:07;;;;;;;7.47;4.85;;;;;;;14.02;62.83;98822.09;1721331;82;20929;-41
2022/05/14 03:57:33;;;;;;;9.35;5.25;;;;;;;14.07;62.87;98831.80;1748947;82;21504;-41
2022/05/14 04:00:02;;;;;;;7.97;5.17;;;;;;;14.04;63.11;98827.16;1748798;82;21024;-41
2022/05/14 04:02:29;;;;;;;9.20;4.50;;;;;;;14.06;63.24;98826.94;1749099;81;21769;-41
2022/05/14 04:04:56;;;;;;;13.15;4.75;;;;;;;14.10;63.45;98830.42;1749011;82;22210;-41
2022/05/14 04:07:23;;;;;;;9.28;4.37;;;;;;;14.16;63.70;98830.21;1748619;82;21568;-41
2022/05/14 04:09:50;;;;;;;14.10;5.37;;;;;;;14.23;63.97;98831.52;1748876;82;21008;-41
2022/05/14 04:12:18;;;;;;;8.15;5.10;;;;;;;14.28;63.69;98832.48;1748855;82;21000;-41
2022/05/14 04:14:45;;;;;;;8.25;5.03;;;;;;;14.31;63.56;98838.52;1749063;82;21079;-41
2022/05/14 04:17:12;;;;;;;7.58;4.75;;;;;;;14.30;63.97;98839.69;1749077;82;21109;-41
2022/05/14 04:19:40;;;;;;;7.60;4.70;;;;;;;14.28;64.47;98845.36;1749036;82;21511;-41
2022/05/14 04:22:07;;;;;;;8.60;4.78;;;;;;;14.27;64.62;98839.12;1748838;82;21037;-41
2022/05/14 04:24:35;;;;;;;9.20;4.20;;;;;;;14.30;64.70;98846.51;1748897;82;20986;-41
2022/05/14 04:27:02;;;;;;;8.35;4.00;;;;;;;14.35;64.49;98840.64;1744334;81;21029;-41
2022/05/14 04:29:29;;;;;;;9.65;4.17;;;;;;;14.40;64.68;98843.56;1714234;82;21209;-41
2022/05/14 04:31:56;;;;;;;11.68;4.53;;;;;;;14.48;64.48;98834.75;1734911;82;20930;-41
2022/05/14 04:34:23;;;;;;;9.05;4.55;;;;;;;14.56;64.05;98847.20;1714068;82;21018;-41
2022/05/14 04:36:50;;;;;;;8.55;4.42;;;;;;;14.63;64.32;98862.14;1735109;82;20961;-41
2022/05/14 04:39:16;;;;;;;8.10;4.50;;;;;;;14.68;64.05;98868.55;1734890;82;21462;-41
2022/05/14 04:41:43;;;;;;;10.08;4.00;;;;;;;14.73;63.55;98868.91;1735029;82;21721;-41
2022/05/14 04:44:10;;;;;;;9.10;3.40;;;;;;;14.81;62.59;98864.80;1735067;82;20965;-41
2022/05/14 04:46:37;;;;;;;12.65;3.98;;;;;;;14.85;62.39;98869.05;1735090;82;21006;-41
2022/05/14 04:49:04;;;;;;;9.53;4.30;;;;;;;14.88;62.72;98862.78;1735101;82;21595;-41
2022/05/14 04:51:32;;;;;;;6.70;4.08;;;;;;;14.92;62.65;98869.58;1734863;82;21059;-41
2022/05/14 04:53:59;;;;;;;8.43;3.95;;;;;;;14.96;62.09;98860.19;1734974;82;23113;-41
2022/05/14 04:56:25;;;;;;;7.95;3.80;;;;;;;15.00;62.30;98862.91;1735000;82;20918;-41
2022/05/14 04:58:52;;;;;;;9.23;4.08;;;;;;;15.03;62.17;98857.42;1735427;82;21457;-41
2022/05/14 05:01:19;;;;;;;8.75;3.65;;;;;;;15.07;61.90;98860.89;1735133;82;20926;-41
2022/05/14 05:03:47;;;;;;;8.45;3.70;;;;;;;15.15;61.32;98858.29;1735167;82;21050;-41
2022/05/14 05:06:14;;;;;;;7.95;3.83;;;;;;;15.25;60.67;98866.83;1714500;82;21914;-41
2022/05/14 05:08:42;;;;;;;8.95;3.77;;;;;;;15.29;60.21;98859.38;1735016;82;21509;-41
2022/05/14 05:11:10;;;;;;;7.20;3.67;;;;;;;15.32;59.81;98857.98;1730278;82;20965;-41
2022/05/14 05:13:38;;;;;;;7.17;3.52;;;;;;;15.36;59.84;98863.40;1735043;82;20931;-41
2022/05/14 05:16:05;;;;;;;9.50;3.85;;;;;;;15.39;59.87;98863.39;1735226;82;21038;-41
2022/05/14 05:18:34;;;;;;;10.45;4.00;;;;;;;15.40;59.20;98863.55;1735015;82;21126;-41
2022/05/14 05:21:00;;;;;;;6.83;3.52;;;;;;;15.40;58.76;98862.77;1734895;82;21005;-41
2022/05/14 05:23:27;;;;;;;7.35;3.83;;;;;;;15.37;59.21;98865.73;1734971;82;21034;-41
2022/05/14 05:25:57;;;;;;;9.58;4.08;;;;;;;15.32;58.85;98864.80;1734871;82;20946;-41
2022/05/14 05:28:25;;;;;;;12.18;4.00;;;;;;;15.29;59.24;98871.67;1745146;81;21487;-41
2022/05/14 05:30:52;;;;;;;8.18;4.12;;;;;;;15.23;59.24;98862.54;1748817;82;21231;-41
2022/05/14 05:33:23;;;;;;;8.13;3.90;;;;;;;15.21;58.84;98868.20;1748941;82;20929;-41
2022/05/14 05:35:49;;;;;;;7.58;3.80;;;;;;;15.20;59.10;98861.21;1749161;82;21024;-41
2022/05/14 05:38:17;;;;;;;6.72;3.95;;;;;;;15.17;58.95;98867.45;1748909;82;21001;-41
2022/05/14 05:40:45;;;;;;;7.20;3.98;;;;;;;15.15;59.14;98867.09;1748778;82;21044;-41
2022/05/14 05:43:12;;;;;;;10.55;3.62;;;;;;;15.13;59.19;98867.48;1749139;82;21894;-41
2022/05/14 05:45:41;;;;;;;7.50;4.00;;;;;;;15.15;59.80;98865.73;1748978;82;20954;-41
2022/05/14 05:48:10;;;;;;;8.23;3.98;;;;;;;15.19;59.58;98864.52;1721398;82;21018;-41
2022/05/14 05:50:38;;;;;;;6.17;3.95;;;;;;;15.21;59.59;98858.05;1748941;82;21033;-41
2022/05/14 05:53:06;;;;;;;6.78;3.92;;;;;;;15.28;59.56;98855.09;1749147;82;21369;-41
2022/05/14 05:58:19;;;;;;;7.37;3.33;;;;;;;15.44;59.49;98858.08;1719229;83;20894;-41
2022/05/14 06:00:47;;;;;;;7.90;3.95;;;;;;;15.51;59.11;98859.40;1719079;83;20941;-41
2022/05/14 06:03:14;;;;;;;10.40;4.05;;;;;;;15.57;58.33;98855.06;1719086;83;20949;-41
2022/05/14 06:05:41;;;;;;;8.25;3.52;;;;;;;15.60;58.51;98856.97;1719216;83;21049;-41
2022/05/14 06:08:10;;;;;;;7.12;3.70;;;;;;;15.63;58.16;98858.33;1719172;83;21164;-41
2022/05/14 06:10:37;;;;;;;13.00;4.00;;;;;;;15.67;58.14;98859.65;1719379;83;21016;-41
2022/05/14 06:13:04;;;;;;;8.13;3.95;;;;;;;15.74;58.26;98858.78;1719315;83;21095;-41
2022/05/14 06:15:32;;;;;;;10.93;3.67;;;;;;;15.83;57.31;98867.31;1719138;83;21080;-41
2022/05/14 06:18:03;;;;;;;6.55;3.62;;;;;;;15.89;55.94;98870.54;1719143;83;21053;-41
2022/05/14 06:20:31;;;;;;;8.05;3.75;;;;;;;15.90;55.54;98870.73;1719317;83;21874;-41
2022/05/14 06:22:57;;;;;;;7.17;3.75;;;;;;;15.88;55.46;98875.81;1719244;83;20985;-41
2022/05/14 06:25:24;;;;;;;7.62;3.95;;;;;;;15.91;55.51;98870.14;1719136;83;21080;-41
2022/05/14 06:27:53;;;;;;;6.12;3.92;;;;;;;15.95;55.60;98885.33;1713511;83;21508;-41
2022/05/14 06:30:20;;;;;;;8.03;3.70;;;;;;;15.96;55.05;98888.25;1706136;84;21575;-41
2022/05/14 06:32:47;;;;;;;12.58;3.85;;;;;;;15.97;54.81;98891.77;1701104;84;21239;-41
2022/05/14 06:35:13;;;;;;;11.28;4.00;;;;;;;15.97;55.23;98900.74;1705782;84;21024;-41
2022/05/14 06:37:41;;;;;;;11.20;4.60;;;;;;;15.98;54.94;98899.54;1705778;84;21012;-41
2022/05/14 06:40:10;;;;;;;8.93;4.42;;;;;;;16.01;54.55;98901.48;1706559;83;21054;-41
2022/05/14 06:42:38;;;;;;;9.90;3.95;;;;;;;16.04;53.64;98903.39;1714333;83;21084;-41
2022/05/14 06:45:09;;;;;;;10.00;4.90;;;;;;;16.08;53.99;98910.18;1696011;83;21208;-41
2022/05/14 06:47:36;;;;;;;8.75;5.08;;;;;;;16.03;53.04;98909.25;1651923;86;21534;-41
2022/05/14 06:50:04;;;;;;;9.35;5.12;;;;;;;16.01;53.24;98917.89;1685292;85;21073;-41
2022/05/14 06:52:31;;;;;;;9.10;5.40;;;;;;;15.98;53.44;98914.58;1651897;86;21020;-41
2022/05/14 06:54:59;;;;;;;10.50;5.65;;;;;;;16.00;53.64;98922.38;1685065;84;21089;-41
2022/05/14 06:57:26;;;;;;;12.68;5.80;;;;;;;16.03;53.95;98920.97;1651656;86;23121;-41
2022/05/14 06:59:54;;;;;;;12.78;6.15;;;;;;;16.08;53.25;98925.22;1684981;84;21033;-41
2022/05/14 07:02:21;;;;;;;11.38;5.70;;;;;;;16.06;53.45;98929.75;1654762;85;20940;-41
2022/05/14 07:07:32;;;;;;;10.05;6.17;;;;;;;16.06;53.76;98929.75;1679341;85;21460;-41
2022/05/14 07:10:00;;;;;;;12.93;6.30;;;;;;;16.04;53.94;98928.00;1713568;83;23135;-41
2022/05/14 07:12:28;;;;;;;13.90;7.47;;;;;;;16.02;53.76;98935.06;1713844;82;21040;-41
2022/05/14 07:14:55;;;;;;;16.00;7.37;;;;;;;16.00;53.90;98935.47;1679301;85;21305;-41
2022/05/14 07:17:21;;;;;;;16.82;8.08;;;;;;;15.99;53.56;98947.58;1679163;85;21088;-41
2022/05/14 07:19:49;;;;;;;15.50;7.15;;;;;;;15.97;53.51;98950.55;1713776;83;21033;-41
2022/05/14 07:22:16;;;;;;;14.83;7.25;;;;;;;15.97;53.63;98949.95;1713697;83;21260;-41
2022/05/14 07:24:45;;;;;;;11.70;7.20;;;;;;;15.99;53.70;98953.05;1679033;85;21048;-41
2022/05/14 07:27:12;;;;;;;19.05;7.62;;;;;;;15.97;53.83;98958.16;1713779;83;21017;-41
2022/05/14 07:29:40;;;;;;;13.65;7.15;;;;;;;15.98;54.06;98961.64;1679164;85;20996;-41
2022/05/14 07:32:10;;;;;;;15.18;6.83;;;;;;;15.97;53.98;98960.11;1713828;83;20989;-41
2022/05/14 07:34:39;;;;;;;15.38;6.72;;;;;;;15.95;54.12;98957.00;1713834;82;21228;-41
2022/05/14 07:37:09;;;;;;;11.60;6.72;;;;;;;15.96;54.16;98963.44;1679171;85;21567;-41
2022/05/14 07:39:45;;;;;;;13.32;7.67;;;;;;;15.95;54.18;98963.83;1713674;83;20945;-41
2022/05/14 07:42:15;;;;;;;16.17;7.78;;;;;;;15.93;53.98;98968.33;1714119;83;21041;-41
2022/05/14 07:44:45;;;;;;;21.30;8.33;;;;;;;15.95;54.22;98972.03;1679311;85;21073;-41
2022/05/14 07:47:11;;;;;;;25.43;9.58;;;;;;;15.98;54.90;98971.21;1704195;83;21639;-41
2022/05/14 07:49:38;;;;;;;22.82;10.10;;;;;;;16.01;54.48;98973.94;1679460;85;20949;-41
2022/05/14 07:52:06;;;;;;;21.70;9.93;;;;;;;16.04;53.24;98978.59;1679415;85;21491;-41
2022/05/14 07:54:33;;;;;;;18.82;9.83;;;;;;;16.07;53.27;98973.66;1713969;83;21547;-41
2022/05/14 07:57:02;;;;;;;17.02;9.50;;;;;;;16.10;53.29;98977.56;1713916;83;21010;-41
2022/05/14 07:59:29;;;;;;;19.32;10.63;;;;;;;16.14;53.66;98976.15;1679519;85;21273;-41
2022/05/14 08:01:55;;;;;;;26.93;11.53;;;;;;;16.19;52.84;98974.34;1713965;83;21085;-41
2022/05/14 08:04:22;;;;;;;21.45;12.15;;;;;;;16.22;52.45;98970.78;1714148;83;20950;-41
2022/05/14 08:06:49;;;;;;;28.67;12.98;;;;;;;16.25;52.65;98980.34;1713743;83;21021;-41
2022/05/14 08:09:16;;;;;;;23.47;12.55;;;;;;;16.30;52.43;98972.28;1713927;82;21017;-41
2022/05/14 08:11:43;;;;;;;23.62;12.03;;;;;;;16.35;52.09;98980.05;1713835;83;21248;-41
2022/05/14 08:14:10;;;;;;;23.70;11.40;;;;;;;16.38;51.81;98978.64;1713935;82;21630;-41
2022/05/14 08:16:38;;;;;;;20.35;11.30;;;;;;;16.42;52.03;98978.00;1713777;83;21005;-41
2022/05/14 08:19:05;;;;;;;20.90;11.63;;;;;;;16.48;51.89;98976.97;1713813;83;21005;-41
2022/05/14 08:24:34;;;;;;;25.35;11.73;;;;;;;16.60;52.32;98980.59;1713629;83;23166;-41
2022/05/14 08:27:07;;;;;;;24.85;12.78;;;;;;;16.68;51.81;98985.38;1713789;83;21096;-41
2022/05/14 08:29:34;;;;;;;26.10;12.82;;;;;;;16.71;51.73;98981.22;1713829;83;21093;-41
2022/05/14 08:32:01;;;;;;;26.93;14.60;;;;;;;16.77;51.52;98974.11;1713920;83;21001;-41
2022/05/14 08:34:28;;;;;;;30.65;16.82;;;;;;;16.86;51.00;98978.50;1713884;83;21032;-41
2022/05/14 08:36:56;;;;;;;28.62;16.95;;;;;;;16.94;50.19;98977.21;1713898;83;21256;-41
2022/05/14 08:39:23;;;;;;;27.70;17.00;;;;;;;17.01;49.80;98982.42;1713952;83;21089;-41
2022/05/14 08:41:51;;;;;;;28.02;15.45;;;;;;;17.06;49.22;98980.59;1713809;83;21032;-41
2022/05/14 08:44:21;;;;;;;26.20;13.98;;;;;;;17.08;49.13;98980.37;1714179;83;21524;-41
2022/05/14 08:46:57;;;;;;;28.62;12.82;;;;;;;17.09;48.37;98988.00;1713777;82;20973;-41
2022/05/14 08:49:35;;;;;;;24.77;12.47;;;;;;;17.06;48.53;98979.22;1713583;82;23119;-41
2022/05/14 08:52:06;;;;;;;19.37;11.43;;;;;;;17.05;48.94;98978.45;1713769;82;21212;-41
2022/05/14 08:54:33;;;;;;;20.48;11.28;;;;;;;17.06;48.87;98978.63;1713984;83;21004;-41
2022/05/14 08:57:23;;;;;;;18.73;10.93;;;;;;;17.08;48.96;98984.48;1713859;82;21041;-41
2022/05/14 08:59:55;;;;;;;16.27;9.70;;;;;;;17.11;49.17;98976.02;1713698;82;21044;-41
2022/05/14 09:02:34;;;;;;;16.17;7.53;;;;;;;17.10;49.23;98982.09;1679454;85;21231;-41
2022/05/14 09:05:08;;;;;;;13.70;6.35;;;;;;;17.16;48.86;98972.83;1678806;85;20937;-41
2022/05/14 09:07:36;;;;;;;9.50;5.10;;;;;;;17.22;49.58;98971.96;1713497;82;21010;-41
2022/05/14 09:10:08;;;;;;;13.63;5.33;;;;;;;17.27;48.79;98974.23;1714164;82;21531;-41
2022/05/14 09:12:37;;;;;;;13.65;5.30;;;;;;;17.36;48.89;98970.98;1707342;82;21059;-43
2022/05/14 09:15:09;;;;;;;9.75;5.75;;;;;;;17.44;48.04;98973.78;1730387;82;23237;-43
2022/05/14 09:17:36;;;;;;;13.03;7.03;;;;;;;17.53;47.91;98975.41;1711264;82;21000;-43
2022/05/14 09:20:08;;;;;;;18.80;6.85;;;;;;;17.62;47.70;98975.68;1726488;82;20970;-43
2022/05/14 09:22:43;;;;;;;10.70;5.62;;;;;;;17.72;48.07;98968.47;1730684;82;21544;-44
2022/05/14 09:25:26;;;;;;;14.23;5.72;;;;;;;17.81;47.98;98961.27;1714653;82;21630;-44
2022/05/14 09:28:05;;;;;;;14.80;5.90;;;;;;;17.92;47.57;98964.42;1708357;82;21550;-42
2022/05/14 09:30:46;;;;;;;10.35;5.85;;;;;;;18.05;47.24;98960.69;1685332;85;21311;-42
2022/05/14 09:33:40;;;;;;;16.15;7.72;;;;;;;18.18;47.01;98961.62;1685906;85;21203;-42
2022/05/14 09:36:18;;;;;;;15.90;8.40;;;;;;;18.31;46.48;98963.14;1685801;85;21084;-41
2022/05/14 09:38:45;;;;;;;16.85;7.90;;;;;;;18.46;45.57;98952.66;1685514;85;21012;-41
2022/05/14 09:41:21;;;;;;;12.80;7.85;;;;;;;18.55;45.29;98952.31;1685641;85;21718;-42
2022/05/14 09:43:51;;;;;;;9.58;5.80;;;;;;;18.58;44.63;98950.11;1687756;83;21043;-42
2022/05/14 09:46:28;;;;;;;9.73;5.87;;;;;;;18.59;44.99;98948.89;1659150;86;20995;-42
2022/05/14 09:49:04;;;;;;;12.05;6.40;;;;;;;18.71;44.52;98947.48;1692622;84;20981;-42
2022/05/14 09:51:55;;;;;;;9.95;5.87;;;;;;;18.91;44.43;98943.34;1721485;83;21574;-41
2022/05/14 09:54:45;;;;;;;11.20;5.28;;;;;;;19.15;43.80;98940.66;1721649;83;21759;-42
2022/05/14 09:57:19;;;;;;;;;;;;;;;19.41;43.15;98945.77;1724106;82;21480;-42
2022/05/14 10:00:19;;;;;;;11.65;6.05;;;;;;;19.75;43.36;98946.11;1721768;82;20206;-41
2022/05/14 10:02:57;;;;;;;10.70;6.65;;;;;;;19.99;41.82;98946.72;1721698;83;21025;-42
2022/05/14 10:06:00;;;;;;;13.00;7.65;;;;;;;20.44;41.94;98949.45;1658192;85;21048;-42
2022/05/14 10:08:47;;;;;;;11.70;6.90;;;;;;;20.77;40.74;98950.86;1721633;83;21152;-42
2022/05/14 10:11:44;;;;;;;8.05;4.35;;;;;;;21.05;40.03;98958.92;1721662;82;21515;-43
2022/05/14 10:14:32;;;;;;;4.70;2.80;;;;;;;21.24;38.62;98953.84;1681203;85;21514;-44
2022/05/14 10:17:37;;;;;;;6.22;2.95;;;;;;;21.27;37.24;98950.79;1721429;83;21057;-42
2022/05/14 10:20:22;;;;;;;5.55;3.12;;;;;;;21.13;38.26;98960.27;1721523;82;21084;-43
2022/05/14 10:29:25;;;;;;;9.65;5.70;;;;;;;20.77;39.08;98954.22;1681490;85;21561;-43
2022/05/14 10:32:05;;;;;;;12.03;6.33;;;;;;;20.58;38.25;98953.19;1686620;85;21582;-43
2022/05/14 10:34:56;;;;;;;13.43;7.37;;;;;;;20.58;38.25;98953.19;1686722;85;21045;-42
2022/05/14 10:37:50;;;;;;;16.65;8.13;;;;;;;20.45;38.34;98950.23;1686971;85;21073;-43
2022/05/14 10:40:38;;;;;;;15.75;8.35;;;;;;;20.26;38.52;98944.41;1721580;82;21016;-42
2022/05/14 10:43:12;;;;;;;15.55;9.15;;;;;;;20.04;39.11;98953.07;1721839;83;20961;-42
2022/05/14 10:45:44;;;;;;;17.62;8.80;;;;;;;19.85;39.59;98945.67;1699286;83;20989;-42
2022/05/14 10:48:51;;;;;;;15.50;8.93;;;;;;;19.81;39.84;98951.88;1721600;83;21499;-42
2022/05/14 10:51:25;;;;;;;14.03;7.97;;;;;;;19.88;40.14;98944.83;1686569;85;21261;-43
2022/05/14 10:53:52;;;;;;;12.65;7.05;;;;;;;20.00;40.35;98947.46;1686417;85;20944;-42
2022/05/14 10:56:37;;;;;;;9.30;4.80;;;;;;;20.11;39.93;98943.23;1721299;83;20957;-43
2022/05/14 10:59:11;;;;;;;8.60;3.72;;;;;;;20.23;39.83;98939.01;1721491;83;21641;-42
2022/05/14 11:02:00;;;;;;;5.53;3.05;;;;;;;20.34;39.50;98936.75;1721425;83;21045;-42
2022/05/14 11:04:34;;;;;;;7.33;2.83;;;;;;;20.39;38.61;98935.61;1721766;83;21078;-42
2022/05/14 11:07:05;;;;;;;4.47;1.90;;;;;;;20.38;39.14;98936.81;1715529;83;21020;-42
2022/05/14 11:09:49;;;;;;;3.70;1.50;;;;;;;20.36;38.81;98942.00;1721694;83;20957;-42
2022/05/14 11:12:24;;;;;;;7.58;1.50;;;;;;;20.35;38.38;98944.58;1721257;83;21041;-42
2022/05/14 11:14:57;;;;;;;5.50;1.40;;;;;;;20.26;38.10;98941.66;1721263;83;21017;-42
2022/05/14 11:17:28;;;;;;;3.45;1.60;;;;;;;20.08;38.40;98950.99;1721581;83;21171;-42
2022/05/14 11:20:10;;;;;;;7.60;1.87;;;;;;;19.91;39.06;98946.70;1686181;85;21104;-42
2022/05/14 11:22:51;;;;;;;2.47;1.20;;;;;;;19.76;39.68;98949.64;1686969;85;21574;-42
2022/05/14 11:25:23;;;;;;;5.33;1.80;;;;;;;19.63;40.36;98953.70;1721884;83;20997;-42
2022/05/14 11:28:25;;;;;;;6.47;1.60;;;;;;;19.52;40.98;98955.31;1721401;83;21104;-42
2022/05/14 11:30:55;;;;;;;4.03;1.40;;;;;;;19.44;41.06;98966.31;1726228;82;21248;-42
2022/05/14 11:33:31;;;;;;;3.05;1.40;;;;;;;19.29;41.61;98965.66;1691679;84;21012;-42
2022/05/14 11:36:01;;;;;;;3.02;1.62;;;;;;;19.15;42.13;98968.13;1691652;84;21044;-42
2022/05/14 11:38:33;;;;;;;4.90;2.02;;;;;;;19.04;42.06;98965.61;1691722;84;21024;-42
2022/05/14 11:44:32;;;;;;;2.40;1.50;;;;;;;18.96;42.91;98971.69;1830455;78;22498;-46
2022/05/14 11:46:59;;;;;;;3.65;1.25;;;;;;;18.84;42.46;98950.34;1733414;82;21008;-41
2022/05/14 11:49:41;;;;;;;3.80;1.40;;;;;;;18.89;41.73;98956.72;1749306;82;21526;-41
2022/05/14 11:52:50;;;;;;;3.92;1.52;;;;;;;18.97;41.89;98943.02;1749263;82;21529;-42
2022/05/14 11:55:31;;;;;;;3.43;1.50;;;;;;;19.22;42.39;98943.84;1748902;82;21011;-41
2022/05/14 11:58:03;;;;;;;3.65;1.40;;;;;;;19.67;42.35;98942.59;1749424;82;21564;-41
2022/05/14 12:00:32;;;;;;;6.35;1.57;;;;;;;19.99;40.59;98945.34;1749162;82;21003;-41
2022/05/14 12:03:21;;;;;;;6.35;1.70;;;;;;;20.18;40.06;98940.31;1749820;82;21123;-42
2022/05/14 12:06:09;;;;;;;5.53;1.70;;;;;;;20.24;40.01;98934.42;1749677;82;20956;-41
2022/05/14 12:08:53;;;;;;;3.65;1.55;;;;;;;20.53;39.60;98938.57;1749653;82;20921;-42
2022/05/14 12:12:10;;;;;;;2.98;1.57;;;;;;;20.83;39.21;98939.47;1749337;82;21538;-42
2022/05/14 12:14:37;;;;;;;3.12;1.62;;;;;;;20.99;38.10;98933.11;1749301;81;21035;-41